createdAt,value
2022-11-29T00:00:16.177Z,31.92
2022-11-29T00:04:05.183Z,28.83
2022-11-29T00:07:36.937Z,26.60
2022-11-29T00:11:13.998Z,35.33
2022-11-29T00:14:45.960Z,28.17
2022-11-29T00:18:18.192Z,29.97
2022-11-29T00:21:49.955Z,26.85
2022-11-29T00:25:21.984Z,26.13
2022-11-29T00:28:53.911Z,27.50
2022-11-29T00:32:26.061Z,28.70
2022-11-29T00:36:01.542Z,28.75
2022-11-29T00:39:33.366Z,24.25
2022-11-29T00:43:04.944Z,23.23
2022-11-29T00:46:37.338Z,27.38
2022-11-29T00:50:09.331Z,25.50
2022-11-29T00:53:41.608Z,25.67
2022-11-29T00:57:13.285Z,30.58
2022-11-29T01:00:45.787Z,26.67
2022-11-29T01:04:17.619Z,28.33
2022-11-29T01:07:49.802Z,28.45
2022-11-29T01:11:24.617Z,25.15
2022-11-29T01:14:58.656Z,25.77
2022-11-29T01:18:30.593Z,29.23
2022-11-29T01:22:02.398Z,25.83
2022-11-29T01:25:34.072Z,23.23
2022-11-29T01:29:06.117Z,32.17
2022-11-29T01:32:38.225Z,26.83
2022-11-29T01:36:12.546Z,24.88
2022-11-29T01:39:44.372Z,28.67
2022-11-29T01:43:17.555Z,27.45
2022-11-29T01:46:49.644Z,25.15
2022-11-29T01:50:22.072Z,24.08
2022-11-29T01:53:55.057Z,24.43
2022-11-29T01:57:27.436Z,28.13
2022-11-29T02:01:00.619Z,26.48
2022-11-29T02:04:35.099Z,28.10
2022-11-29T02:08:08.402Z,27.13
2022-11-29T02:12:07.734Z,27.48
2022-11-29T02:15:58.419Z,27.47
2022-11-29T02:20:06.289Z,25.17
2022-11-29T02:24:00.818Z,23.98
2022-11-29T02:28:03.894Z,29.10
2022-11-29T02:32:12.873Z,25.53
2022-11-29T02:36:22.345Z,31.67
2022-11-29T02:40:26.940Z,29.90
2022-11-29T02:44:40.450Z,32.53
2022-11-29T02:48:29.227Z,23.15
2022-11-29T02:52:13.180Z,29.05
2022-11-29T02:55:59.576Z,28.30
2022-11-29T02:59:45.532Z,26.13
2022-11-29T03:03:35.646Z,29.20
2022-11-29T03:07:19.963Z,28.58
2022-11-29T03:11:12.837Z,25.97
2022-11-29T03:15:00.098Z,28.27
2022-11-29T03:18:52.186Z,29.50
2022-11-29T03:22:26.724Z,29.30
2022-11-29T03:26:07.609Z,31.13
2022-11-29T03:29:53.228Z,27.95
2022-11-29T03:33:36.955Z,27.70
2022-11-29T03:37:23.425Z,25.83
2022-11-29T03:41:05.073Z,28.05
2022-11-29T03:44:49.994Z,31.58
2022-11-29T03:48:27.358Z,29.83
2022-11-29T03:52:38.826Z,26.25
2022-11-29T03:56:32.432Z,26.55
2022-11-29T04:00:08.359Z,29.47
2022-11-29T04:04:02.116Z,31.40
2022-11-29T04:07:54.442Z,32.97
2022-11-29T04:11:55.588Z,28.30
2022-11-29T04:16:07.703Z,27.38
2022-11-29T04:20:38.791Z,30.40
2022-11-29T04:24:39.063Z,35.90
2022-11-29T04:28:19.415Z,27.40
2022-11-29T04:32:21.545Z,28.05
2022-11-29T04:36:21.828Z,30.38
2022-11-29T04:40:31.254Z,33.90
2022-11-29T04:44:27.101Z,28.83
2022-11-29T04:48:40.258Z,25.40
2022-11-29T04:52:36.791Z,37.10
2022-11-29T04:56:33.082Z,32.20
2022-11-29T05:00:09.986Z,38.92
2022-11-29T05:04:04.839Z,31.25
2022-11-29T05:07:59.846Z,28.20
2022-11-29T05:11:58.034Z,29.45
2022-11-29T05:15:35.783Z,33.13
2022-11-29T05:19:29.935Z,32.90
2022-11-29T05:23:26.466Z,35.33
2022-11-29T05:27:10.525Z,33.83
2022-11-29T05:31:03.964Z,36.00
2022-11-29T05:35:07.323Z,29.10
2022-11-29T05:39:19.343Z,29.20
2022-11-29T05:43:12.190Z,35.83
2022-11-29T05:47:01.294Z,36.83
2022-11-29T05:50:58.472Z,34.35
2022-11-29T05:54:38.023Z,31.17
2022-11-29T05:58:28.641Z,32.17
2022-11-29T06:02:30.830Z,28.73
2022-11-29T06:06:14.186Z,35.40
2022-11-29T06:09:53.546Z,32.50
2022-11-29T06:13:59.738Z,34.70
2022-11-29T06:17:55.341Z,33.10
2022-11-29T06:21:56.708Z,29.35
2022-11-29T06:25:42.712Z,35.93
2022-11-29T06:29:36.772Z,34.17
2022-11-29T06:33:22.851Z,36.88
2022-11-29T06:37:03.454Z,31.03
2022-11-29T06:40:35.478Z,35.75
2022-11-29T06:44:08.042Z,36.92
2022-11-29T06:47:46.447Z,31.93
2022-11-29T06:51:57.198Z,37.58
2022-11-29T06:55:54.899Z,38.97
2022-11-29T06:59:50.443Z,36.83
2022-11-29T07:03:48.100Z,37.77
2022-11-29T07:07:22.373Z,42.42
2022-11-29T07:10:55.869Z,37.53
2022-11-29T07:14:28.054Z,39.47
2022-11-29T07:18:13.276Z,35.58
2022-11-29T07:22:09.426Z,37.88
2022-11-29T07:25:58.466Z,40.00
2022-11-29T07:29:48.636Z,38.40
2022-11-29T07:33:50.920Z,43.15
2022-11-29T07:38:00.455Z,35.72
2022-11-29T07:42:08.265Z,33.20
2022-11-29T07:45:40.422Z,30.75
2022-11-29T07:49:12.058Z,38.15
2022-11-29T07:52:44.382Z,39.23
2022-11-29T07:56:16.513Z,39.40
2022-11-29T07:59:48.414Z,41.65
2022-11-29T08:03:19.983Z,44.80
2022-11-29T08:06:52.217Z,38.80
2022-11-29T08:10:23.921Z,49.85
2022-11-29T08:14:00.946Z,42.75
2022-11-29T08:17:32.600Z,45.20
2022-11-29T08:21:07.325Z,45.85
2022-11-29T08:24:38.897Z,43.47
2022-11-29T08:28:10.955Z,45.83
2022-11-29T08:31:42.700Z,40.78
2022-11-29T08:35:14.630Z,45.45
2022-11-29T08:38:46.904Z,39.00
2022-11-29T08:42:19.299Z,42.17
2022-11-29T08:45:52.578Z,39.33
2022-11-29T08:49:24.546Z,44.70
2022-11-29T08:53:16.968Z,41.93
2022-11-29T09:00:42.417Z,43.08
2022-11-29T09:04:14.417Z,45.37
2022-11-29T09:07:46.942Z,44.67
2022-11-29T09:11:22.408Z,49.70
2022-11-29T09:14:53.998Z,48.13
2022-11-29T09:18:28.675Z,48.75
2022-11-29T09:22:00.245Z,45.05
2022-11-29T09:25:32.501Z,40.33
2022-11-29T09:29:05.853Z,48.63
2022-11-29T09:32:37.915Z,43.05
2022-11-29T09:36:10.963Z,50.38
2022-11-29T09:39:42.873Z,47.23
2022-11-29T09:43:32.111Z,47.47
2022-11-29T09:47:15.981Z,50.75
2022-11-29T09:51:31.043Z,45.40
2022-11-29T09:55:21.072Z,54.75
2022-11-29T09:59:23.029Z,49.65
2022-11-29T10:03:16.654Z,45.45
2022-11-29T10:07:11.081Z,46.30
2022-11-29T10:10:46.984Z,45.75
2022-11-29T10:14:24.313Z,47.83
2022-11-29T10:18:02.322Z,46.43
2022-11-29T10:21:37.761Z,48.55
2022-11-29T10:25:19.222Z,52.58
2022-11-29T10:28:51.422Z,50.60
2022-11-29T10:32:25.529Z,44.47
2022-11-29T10:36:04.809Z,55.50
2022-11-29T10:40:04.223Z,49.63
2022-11-29T10:43:37.480Z,49.20
2022-11-29T10:47:11.189Z,50.35
2022-11-29T10:50:45.593Z,55.15
2022-11-29T10:54:38.595Z,49.93
2022-11-29T10:58:14.681Z,42.72
2022-11-29T11:01:47.006Z,48.55
2022-11-29T11:05:26.533Z,44.53
2022-11-29T11:09:18.691Z,49.78
2022-11-29T11:13:06.890Z,43.88
2022-11-29T11:16:39.010Z,45.88
2022-11-29T11:20:30.995Z,45.17
2022-11-29T11:24:03.270Z,47.75
2022-11-29T11:27:40.113Z,53.22
2022-11-29T11:31:13.450Z,48.90
2022-11-29T11:34:56.132Z,50.80
2022-11-29T11:38:28.614Z,46.55
2022-11-29T11:42:21.117Z,51.87
2022-11-29T11:45:54.520Z,42.45
2022-11-29T11:49:35.385Z,50.03
2022-11-29T11:53:20.167Z,48.85
2022-11-29T11:56:53.700Z,54.03
2022-11-29T12:01:02.505Z,52.65
2022-11-29T12:04:36.134Z,53.47
2022-11-29T12:08:13.092Z,54.20
2022-11-29T12:12:02.045Z,51.72
2022-11-29T12:15:39.769Z,46.65
2022-11-29T12:19:23.465Z,45.40
2022-11-29T12:23:11.451Z,49.00
2022-11-29T12:26:59.517Z,49.72
2022-11-29T12:30:33.701Z,39.65
2022-11-29T12:34:23.502Z,45.60
2022-11-29T12:38:12.453Z,46.40
2022-11-29T12:41:54.301Z,48.80
2022-11-29T12:45:32.405Z,45.90
2022-11-29T12:49:08.109Z,55.47
2022-11-29T12:53:05.019Z,52.95
2022-11-29T12:57:01.869Z,50.10
2022-11-29T13:00:44.549Z,48.55
2022-11-29T13:04:49.246Z,43.45
2022-11-29T13:08:42.240Z,53.05
2022-11-29T13:12:35.740Z,48.27
2022-11-29T13:16:38.221Z,50.90
2022-11-29T13:20:43.748Z,49.17
2022-11-29T13:24:42.722Z,47.00
2022-11-29T13:28:22.229Z,47.60
2022-11-29T13:31:54.309Z,48.28
2022-11-29T13:35:43.902Z,51.47
2022-11-29T13:39:58.147Z,47.67
2022-11-29T13:43:35.243Z,51.13
2022-11-29T13:47:12.605Z,44.92
2022-11-29T13:50:45.591Z,49.60
2022-11-29T13:54:30.798Z,49.53
2022-11-29T13:58:28.606Z,48.30
2022-11-29T14:02:00.754Z,51.10
2022-11-29T14:05:39.805Z,52.47
2022-11-29T14:09:22.786Z,47.25
2022-11-29T14:12:56.833Z,53.40
2022-11-29T14:16:36.640Z,52.88
2022-11-29T14:20:43.955Z,49.55
2022-11-29T14:24:37.142Z,45.60
2022-11-29T14:28:15.046Z,52.47
2022-11-29T14:31:49.366Z,48.65
2022-11-29T14:35:33.492Z,53.10
2022-11-29T14:39:14.123Z,51.53
2022-11-29T14:42:48.478Z,46.22
2022-11-29T14:46:29.854Z,49.08
2022-11-29T14:50:06.830Z,44.40
2022-11-29T14:53:40.920Z,45.35
2022-11-29T14:57:49.670Z,52.25
2022-11-29T15:01:21.638Z,45.47
2022-11-29T15:04:56.997Z,53.60
2022-11-29T15:08:40.951Z,54.63
2022-11-29T15:12:21.758Z,52.67
2022-11-29T15:16:21.306Z,54.40
2022-11-29T15:20:05.800Z,53.83
2022-11-29T15:23:42.560Z,51.67
2022-11-29T15:27:14.353Z,54.80
2022-11-29T15:30:48.171Z,45.05
2022-11-29T15:34:26.093Z,52.92
2022-11-29T15:37:58.056Z,48.28
2022-11-29T15:41:34.020Z,52.50
2022-11-29T15:45:25.529Z,51.47
2022-11-29T15:49:21.582Z,55.20
2022-11-29T15:52:59.519Z,54.03
2022-11-29T15:56:39.372Z,57.70
2022-11-29T16:00:20.105Z,49.15
2022-11-29T16:03:55.170Z,50.30
2022-11-29T16:07:32.547Z,50.03
2022-11-29T16:11:05.890Z,53.65
2022-11-29T16:14:48.913Z,52.28
2022-11-29T16:18:26.167Z,45.80
2022-11-29T16:22:14.272Z,52.08
2022-11-29T16:26:05.497Z,49.67
2022-11-29T16:29:43.049Z,52.63
2022-11-29T16:33:24.004Z,52.05
2022-11-29T16:37:01.486Z,50.35
2022-11-29T16:40:35.353Z,45.33
2022-11-29T16:44:39.231Z,49.65
2022-11-29T16:48:22.890Z,46.55
2022-11-29T16:51:56.002Z,50.45
2022-11-29T16:55:27.699Z,50.80
2022-11-29T16:59:24.688Z,50.00
2022-11-29T17:02:54.624Z,54.25
2022-11-29T17:06:28.054Z,55.93
2022-11-29T17:09:59.967Z,52.72
2022-11-29T17:13:31.901Z,51.88
2022-11-29T17:17:04.063Z,50.37
2022-11-29T17:20:35.997Z,57.35
2022-11-29T17:24:11.879Z,50.38
2022-11-29T17:27:43.905Z,48.83
2022-11-29T17:31:18.998Z,49.83
2022-11-29T17:34:51.177Z,54.75
2022-11-29T17:38:22.692Z,52.33
2022-11-29T17:41:54.663Z,51.23
2022-11-29T17:45:27.238Z,59.22
2022-11-29T17:49:00.957Z,52.53
2022-11-29T17:52:32.785Z,50.23
2022-11-29T17:56:10.033Z,59.38
2022-11-29T17:59:41.562Z,47.53
2022-11-29T18:03:13.781Z,59.17
2022-11-29T18:06:49.654Z,53.53
2022-11-29T18:10:22.164Z,51.08
2022-11-29T18:13:56.414Z,54.38
2022-11-29T18:17:28.360Z,53.53
2022-11-29T18:21:01.002Z,52.70
2022-11-29T18:24:32.899Z,46.33
2022-11-29T18:28:04.700Z,53.63
2022-11-29T18:31:38.473Z,54.47
2022-11-29T18:35:11.984Z,48.65
2022-11-29T18:38:45.648Z,55.78
2022-11-29T18:42:17.346Z,50.77
2022-11-29T18:45:49.349Z,47.92
2022-11-29T18:49:21.553Z,51.58
2022-11-29T18:52:55.620Z,53.40
2022-11-29T18:56:29.959Z,56.30
2022-11-29T19:00:02.973Z,55.35
2022-11-29T19:03:37.049Z,58.97
2022-11-29T19:07:08.930Z,63.58
2022-11-29T19:10:40.502Z,59.00
2022-11-29T19:14:13.465Z,61.30
2022-11-29T19:17:45.592Z,51.27
2022-11-29T19:21:18.787Z,56.10
2022-11-29T19:24:50.512Z,50.50
2022-11-29T19:28:22.905Z,62.97
2022-11-29T19:31:54.733Z,54.17
2022-11-29T19:35:26.630Z,58.90
2022-11-29T19:39:00.908Z,65.63
2022-11-29T19:42:32.791Z,48.13
2022-11-29T19:46:12.559Z,50.47
2022-11-29T19:49:46.735Z,49.92
2022-11-29T19:53:18.593Z,58.43
2022-11-29T19:56:50.547Z,62.63
2022-11-29T20:00:22.516Z,52.20
2022-11-29T20:03:58.409Z,54.17
2022-11-29T20:07:30.209Z,49.22
2022-11-29T20:11:28.710Z,59.17
2022-11-29T20:15:01.144Z,58.60
2022-11-29T20:18:33.837Z,60.47
2022-11-29T20:22:05.539Z,56.28
2022-11-29T20:25:37.535Z,59.97
2022-11-29T20:29:10.503Z,63.23
2022-11-29T20:32:42.847Z,55.92
2022-11-29T20:37:05.725Z,60.95
2022-11-29T20:41:02.452Z,66.20
2022-11-29T20:44:40.410Z,53.88
2022-11-29T20:48:19.713Z,60.20
2022-11-29T20:52:02.371Z,58.30
2022-11-29T20:55:37.856Z,63.60
2022-11-29T20:59:09.759Z,63.67
2022-11-29T21:02:41.782Z,53.35
2022-11-29T21:06:13.647Z,52.90
2022-11-29T21:09:45.776Z,60.47
2022-11-29T21:13:20.030Z,55.35
2022-11-29T21:16:52.111Z,54.80
2022-11-29T21:20:26.450Z,57.13
2022-11-29T21:24:07.661Z,55.33
2022-11-29T21:27:39.735Z,57.70
2022-11-29T21:31:13.013Z,58.00
2022-11-29T21:34:45.160Z,60.90
2022-11-29T21:38:22.174Z,55.65
2022-11-29T21:41:53.913Z,61.80
2022-11-29T21:45:26.230Z,51.65
2022-11-29T21:48:57.959Z,54.53
2022-11-29T21:52:29.775Z,56.43
2022-11-29T21:56:04.313Z,57.35
2022-11-29T21:59:36.606Z,60.97
2022-11-29T22:03:08.174Z,62.33
2022-11-29T22:06:40.229Z,58.72
2022-11-29T22:10:13.465Z,64.63
2022-11-29T22:14:04.154Z,53.05
2022-11-29T22:17:35.734Z,53.57
2022-11-29T22:21:45.979Z,60.10
2022-11-29T22:25:17.660Z,56.72
2022-11-29T22:28:49.973Z,53.77
2022-11-29T22:32:22.862Z,67.05
2022-11-29T22:35:54.677Z,55.38
2022-11-29T22:39:26.949Z,57.90
2022-11-29T22:42:58.813Z,58.45
2022-11-29T22:46:30.474Z,60.88
2022-11-29T22:50:02.654Z,56.08
2022-11-29T22:53:35.932Z,59.27
2022-11-29T22:57:07.928Z,62.03
2022-11-29T23:00:44.033Z,53.80
2022-11-29T23:04:16.122Z,63.43
2022-11-29T23:07:47.704Z,59.40
2022-11-29T23:11:23.128Z,57.63
2022-11-29T23:14:56.764Z,60.43
2022-11-29T23:18:29.193Z,56.38
2022-11-29T23:22:00.958Z,57.40
2022-11-29T23:25:32.890Z,62.22
2022-11-29T23:29:06.335Z,59.67
2022-11-29T23:32:38.260Z,58.63
2022-11-29T23:36:10.980Z,52.78
2022-11-29T23:39:42.947Z,52.80
2022-11-29T23:43:14.622Z,53.22
2022-11-29T23:46:46.516Z,61.10
2022-11-29T23:50:18.216Z,58.03
2022-11-29T23:53:54.621Z,59.05
2022-11-29T23:57:26.243Z,57.58
